Time;durP1;ratioP1;P1;durP2;ratioP2;P2;SDS_P1;SDS_P2;PMS_P1;PMS_P2;Temp;Humidity;BMP_temperature;BMP_pressure;BME280_temperature;BME280_humidity;BME280_pressure;Samples;Min_cycle;Max_cycle;Signal;HPM_P1;HPM_P2
2024/01/16 00:01:45;;;;;;;3.10;1.60;;;19.50;41.10;;;;;;222157;1268;22630;-55
2024/01/16 00:06:52;;;;;;;1.50;1.30;;;19.40;41.00;;;;;;222393;1264;22650;-57
2024/01/16 00:11:56;;;;;;;1.90;1.30;;;19.30;41.20;;;;;;222658;1264;23884;-57
2024/01/16 00:17:01;;;;;;;2.50;1.30;;;19.20;41.30;;;;;;222444;1267;22640;-54
2024/01/16 00:22:05;;;;;;;2.70;1.30;;;19.20;41.40;;;;;;222554;1268;22536;-57
2024/01/16 00:27:09;;;;;;;5.50;2.00;;;19.10;41.50;;;;;;222664;1268;22527;-57
2024/01/16 00:32:16;;;;;;;4.50;1.70;;;19.00;41.60;;;;;;222707;1267;22575;-56
2024/01/16 00:37:23;;;;;;;6.40;2.00;;;19.00;41.60;;;;;;222439;1264;22634;-57
2024/01/16 00:42:28;;;;;;;3.80;1.70;;;19.20;41.60;;;;;;222915;1259;22530;-58
2024/01/16 00:47:33;;;;;;;2.80;1.60;;;19.90;40.80;;;;;;222613;1266;23920;-58
2024/01/16 00:52:37;;;;;;;6.00;1.90;;;20.40;39.40;;;;;;222677;1266;26512;-57
2024/01/16 00:57:42;;;;;;;2.00;1.00;;;20.70;39.10;;;;;;222592;1266;24373;-55
2024/01/16 01:02:46;;;;;;;3.70;1.70;;;20.70;39.00;;;;;;222671;1254;24250;-57
2024/01/16 01:07:51;;;;;;;1.50;1.30;;;20.60;39.80;;;;;;222696;1264;24239;-53
2024/01/16 01:12:55;;;;;;;2.10;1.40;;;20.40;39.60;;;;;;223015;1257;24190;-57
2024/01/16 01:18:00;;;;;;;2.80;1.50;;;20.40;39.60;;;;;;222632;1267;24292;-55
2024/01/16 01:23:04;;;;;;;3.20;1.70;;;20.00;40.30;;;;;;222998;1266;24189;-59
2024/01/16 01:28:12;;;;;;;1.30;0.90;;;19.80;40.70;;;;;;222926;1266;22521;-55
2024/01/16 01:33:18;;;;;;;1.70;1.00;;;19.70;41.50;;;;;;222669;1267;22611;-57
2024/01/16 01:38:23;;;;;;;1.00;0.80;;;19.70;40.90;;;;;;222641;1266;24222;-57
2024/01/16 01:43:28;;;;;;;2.90;1.40;;;19.60;40.90;;;;;;222235;1267;22520;-56
2024/01/16 01:48:33;;;;;;;1.20;1.10;;;19.60;41.40;;;;;;222367;1261;25434;-55
2024/01/16 01:53:39;;;;;;;2.00;1.10;;;19.50;41.00;;;;;;222575;1268;23133;-56
2024/01/16 01:58:46;;;;;;;1.00;0.60;;;19.50;41.10;;;;;;222339;1267;22537;-57
2024/01/16 02:03:54;;;;;;;2.00;1.20;;;19.40;41.20;;;;;;222527;1260;25599;-57
2024/01/16 02:08:59;;;;;;;1.40;1.20;;;19.30;41.20;;;;;;222565;1261;25502;-56
2024/01/16 02:14:03;;;;;;;2.20;1.30;;;19.20;41.40;;;;;;222287;1261;24433;-58
2024/01/16 02:19:08;;;;;;;1.20;1.10;;;19.10;41.60;;;;;;222246;1261;24193;-57
2024/01/16 02:24:14;;;;;;;2.10;1.30;;;19.10;41.60;;;;;;222031;1263;22521;-56
2024/01/16 02:29:18;;;;;;;2.40;1.50;;;19.10;41.60;;;;;;222935;1261;22742;-56
2024/01/16 02:34:23;;;;;;;1.70;1.20;;;19.30;41.40;;;;;;222047;1263;23930;-58
2024/01/16 02:39:28;;;;;;;1.80;1.10;;;19.90;40.40;;;;;;222208;1257;22526;-55
2024/01/16 02:44:32;;;;;;;3.70;1.30;;;20.40;39.90;;;;;;222177;1261;22582;-56
2024/01/16 02:49:37;;;;;;;1.50;1.20;;;20.70;39.10;;;;;;222445;1267;23466;-54
2024/01/16 02:54:41;;;;;;;1.30;1.00;;;20.80;39.00;;;;;;222434;1262;24207;-56
2024/01/16 02:59:46;;;;;;;1.00;0.80;;;20.60;39.20;;;;;;222338;1260;22648;-58
2024/01/16 03:04:51;;;;;;;1.50;0.90;;;20.60;39.30;;;;;;222660;1265;22507;-57
2024/01/16 03:09:55;;;;;;;2.00;1.10;;;20.40;39.70;;;;;;222446;1260;23819;-58
2024/01/16 03:15:00;;;;;;;1.80;1.10;;;20.20;40.00;;;;;;222416;1264;24522;-56
2024/01/16 03:20:05;;;;;;;1.50;1.00;;;20.00;40.40;;;;;;222285;1268;22601;-58
2024/01/16 03:25:12;;;;;;;1.80;1.00;;;19.90;40.60;;;;;;222401;1260;22539;-57
2024/01/16 03:30:19;;;;;;;1.10;1.00;;;19.80;41.10;;;;;;222611;1266;23226;-58
2024/01/16 03:35:27;;;;;;;2.80;1.40;;;19.70;41.20;;;;;;222510;1268;25298;-58
2024/01/16 03:40:34;;;;;;;0.90;0.90;;;19.60;40.90;;;;;;222405;1260;24193;-58
2024/01/16 03:45:38;;;;;;;2.40;1.10;;;19.50;40.90;;;;;;222487;1260;22586;-58
2024/01/16 03:50:45;;;;;;;2.00;1.20;;;19.50;41.50;;;;;;222266;1264;22572;-58
2024/01/16 03:55:50;;;;;;;1.10;0.90;;;19.40;41.10;;;;;;222773;1264;24165;-55
2024/01/16 04:00:55;;;;;;;2.00;1.10;;;19.40;41.20;;;;;;222640;1268;24269;-55
2024/01/16 04:06:00;;;;;;;0.80;0.80;;;19.40;41.20;;;;;;222190;1267;24209;-56
2024/01/16 04:11:05;;;;;;;3.60;1.50;;;19.30;41.40;;;;;;222331;1265;22523;-57
2024/01/16 04:16:12;;;;;;;1.50;1.00;;;19.20;42.00;;;;;;222240;1267;24194;-56
2024/01/16 04:21:17;;;;;;;1.70;1.10;;;19.10;41.60;;;;;;222475;1262;23439;-56
2024/01/16 04:26:24;;;;;;;0.90;0.90;;;19.00;41.60;;;;;;222498;1262;22522;-57
2024/01/16 04:31:29;;;;;;;1.00;0.70;;;19.10;41.20;;;;;;222515;1261;22775;-57
2024/01/16 04:36:34;;;;;;;2.10;1.20;;;19.70;40.70;;;;;;222558;1265;25428;-58
2024/01/16 04:41:38;;;;;;;3.20;1.20;;;20.30;39.80;;;;;;222424;1265;24272;-57
2024/01/16 04:46:43;;;;;;;1.90;1.00;;;20.60;39.10;;;;;;222605;1267;22526;-57
2024/01/16 04:51:50;;;;;;;2.60;1.10;;;20.80;39.00;;;;;;223190;1262;23903;-56
2024/01/16 04:56:54;;;;;;;2.50;1.00;;;20.70;39.10;;;;;;222416;1265;27583;-56
2024/01/16 05:01:58;;;;;;;3.70;1.40;;;20.60;39.30;;;;;;222739;1255;22518;-57
2024/01/16 05:07:03;;;;;;;1.60;0.80;;;20.40;39.50;;;;;;222814;1267;23374;-57
2024/01/16 05:12:07;;;;;;;4.60;1.20;;;20.20;39.90;;;;;;222891;1260;25337;-55
2024/01/16 05:17:12;;;;;;;3.20;1.40;;;20.00;40.60;;;;;;222592;1265;24213;-56
2024/01/16 05:22:16;;;;;;;4.70;1.50;;;19.90;40.60;;;;;;222709;1265;24253;-58
2024/01/16 05:27:21;;;;;;;2.20;1.00;;;19.70;40.70;;;;;;222564;1260;24354;-57
2024/01/16 05:32:26;;;;;;;1.60;0.80;;;19.60;40.90;;;;;;223035;1256;22533;-58
2024/01/16 05:37:30;;;;;;;1.30;0.70;;;19.60;40.80;;;;;;222687;1263;25346;-56
2024/01/16 05:42:35;;;;;;;2.80;1.20;;;19.60;41.20;;;;;;222432;1268;22596;-52
2024/01/16 05:47:40;;;;;;;1.30;0.80;;;19.50;41.10;;;;;;222571;1267;414910;-57
2024/01/16 05:52:44;;;;;;;0.70;0.70;;;19.50;41.10;;;;;;222162;1256;25349;-57
2024/01/16 05:57:53;;;;;;;1.30;0.90;;;19.40;41.10;;;;;;222401;1253;22618;-58
2024/01/16 06:02:58;;;;;;;2.40;1.00;;;19.40;41.10;;;;;;223057;1263;22536;-55
2024/01/16 06:08:02;;;;;;;1.40;0.80;;;19.40;41.20;;;;;;222285;1268;22567;-58
2024/01/16 06:13:07;;;;;;;1.40;0.70;;;19.30;41.20;;;;;;222538;1264;22518;-57
2024/01/16 06:18:15;;;;;;;2.00;0.90;;;19.20;41.30;;;;;;222451;1265;22515;-57
2024/01/16 06:23:22;;;;;;;3.90;1.40;;;19.10;41.50;;;;;;222432;1265;24315;-55
2024/01/16 06:28:30;;;;;;;1.20;0.90;;;19.10;41.40;;;;;;222247;1268;22551;-55
2024/01/16 06:33:38;;;;;;;1.60;0.90;;;19.00;41.70;;;;;;222619;1251;22589;-57
2024/01/16 06:38:45;;;;;;;2.30;1.00;;;19.00;42.00;;;;;;222527;1267;22553;-57
2024/01/16 06:43:50;;;;;;;2.50;0.90;;;18.90;41.60;;;;;;222198;1266;24171;-56
2024/01/16 06:48:58;;;;;;;2.00;1.00;;;18.90;41.70;;;;;;221310;1251;22590;-56
2024/01/16 06:54:03;;;;;;;1.10;0.90;;;18.90;41.80;;;;;;221333;1274;24295;-57
2024/01/16 06:59:08;;;;;;;2.30;1.30;;;18.90;41.70;;;;;;221017;1267;24130;-57
2024/01/16 07:04:33;;;;;;;1.70;1.00;;;18.70;41.80;;;;;;221165;1260;22572;-57
2024/01/16 07:09:38;;;;;;;3.50;1.20;;;18.80;41.80;;;;;;222676;1262;25885;-57
2024/01/16 07:14:48;;;;;;;1.60;1.20;;;18.80;42.10;;;;;;222597;1266;24261;-55
2024/01/16 07:19:52;;;;;;;3.50;1.30;;;18.80;41.80;;;;;;222543;1259;22571;-53
2024/01/16 07:24:57;;;;;;;1.80;1.30;;;18.70;41.90;;;;;;222618;1263;25272;-56
2024/01/16 07:30:06;;;;;;;1.70;1.10;;;19.30;41.10;;;;;;222705;1267;25364;-54
2024/01/16 07:35:10;;;;;;;1.60;1.00;;;19.90;40.30;;;;;;223019;1264;24208;-57
2024/01/16 07:40:18;;;;;;;1.40;1.00;;;20.20;39.50;;;;;;222570;1264;27104;-56
2024/01/16 07:45:23;;;;;;;3.40;1.60;;;20.30;39.50;;;;;;222535;1266;22677;-57
2024/01/16 07:50:27;;;;;;;2.50;1.20;;;20.20;39.50;;;;;;222867;1264;23867;-56
2024/01/16 07:55:32;;;;;;;1.00;0.80;;;20.10;39.70;;;;;;222552;1266;22762;-57
2024/01/16 08:00:36;;;;;;;1.70;1.20;;;20.00;40.00;;;;;;222203;1263;22566;-57
2024/01/16 08:05:41;;;;;;;1.00;0.90;;;19.80;40.20;;;;;;222314;1262;23431;-58
2024/01/16 08:10:46;;;;;;;1.50;1.00;;;19.70;40.50;;;;;;222846;1263;22516;-58
2024/01/16 08:15:53;;;;;;;1.50;1.20;;;19.50;41.10;;;;;;222525;1264;22524;-59
2024/01/16 08:20:57;;;;;;;1.90;1.50;;;19.40;41.00;;;;;;222249;1264;26561;-57
2024/01/16 08:26:02;;;;;;;1.20;1.00;;;19.40;41.00;;;;;;222481;1260;22780;-58
2024/01/16 08:31:06;;;;;;;1.70;1.30;;;19.30;41.10;;;;;;222125;1264;24209;-58
2024/01/16 08:36:11;;;;;;;2.30;1.50;;;19.30;41.20;;;;;;222519;1266;24189;-58
2024/01/16 08:41:15;;;;;;;1.60;1.20;;;19.30;41.10;;;;;;222613;1266;23524;-55
2024/01/16 08:46:21;;;;;;;1.10;1.00;;;19.20;41.30;;;;;;222552;1266;22531;-57
2024/01/16 08:51:25;;;;;;;1.90;1.30;;;19.20;41.50;;;;;;222736;1267;25075;-57
2024/01/16 08:56:30;;;;;;;2.50;1.40;;;19.20;41.30;;;;;;222837;1266;24977;-57
2024/01/16 09:01:35;;;;;;;3.80;1.60;;;19.10;41.20;;;;;;222756;1263;22550;-55
2024/01/16 09:06:40;;;;;;;1.40;1.20;;;19.00;41.00;;;;;;222805;1263;24094;-56
2024/01/16 09:11:48;;;;;;;1.80;1.50;;;19.00;41.60;;;;;;222607;1260;22514;-54
2024/01/16 09:16:55;;;;;;;1.80;1.40;;;19.00;41.10;;;;;;222864;1260;22514;-56
2024/01/16 09:22:03;;;;;;;1.90;1.20;;;18.90;41.50;;;;;;221670;1254;22629;-57
2024/01/16 09:27:09;;;;;;;2.70;1.10;;;18.80;41.70;;;;;;222360;1271;24294;-55
2024/01/16 09:32:13;;;;;;;1.10;0.90;;;18.80;41.70;;;;;;221920;1267;22772;-58
2024/01/16 09:37:18;;;;;;;1.30;1.00;;;18.80;41.70;;;;;;221681;1260;22520;-54
2024/01/16 09:42:24;;;;;;;2.40;1.40;;;18.80;41.70;;;;;;222764;1263;25419;-57
2024/01/16 09:47:33;;;;;;;3.40;1.60;;;18.80;41.60;;;;;;222688;1261;22516;-56
2024/01/16 09:53:01;;;;;;;1.90;1.40;;;18.90;41.70;;;;;;223113;1263;22641;-57
2024/01/16 09:58:11;;;;;;;1.60;1.40;;;19.50;40.70;;;;;;222766;1264;22571;-58
2024/01/16 10:03:17;;;;;;;1.10;1.00;;;19.90;40.50;;;;;;222766;1266;24169;-57
2024/01/16 10:08:22;;;;;;;1.70;1.10;;;20.20;39.50;;;;;;222719;1263;26082;-55
2024/01/16 10:13:27;;;;;;;1.10;1.00;;;20.30;39.40;;;;;;222739;1259;22525;-56
2024/01/16 10:18:33;;;;;;;2.10;1.40;;;20.20;39.90;;;;;;222307;1266;22517;-55
2024/01/16 10:23:38;;;;;;;1.80;1.30;;;20.10;39.70;;;;;;222883;1263;24074;-56
2024/01/16 10:28:43;;;;;;;1.20;1.00;;;19.90;40.00;;;;;;222571;1263;22513;-57
2024/01/16 10:33:47;;;;;;;1.40;1.00;;;19.70;40.10;;;;;;222818;1266;22666;-57
2024/01/16 10:38:57;;;;;;;1.30;1.20;;;19.60;40.90;;;;;;222059;1265;23138;-55
2024/01/16 10:44:08;;;;;;;1.50;1.10;;;19.40;41.00;;;;;;222703;1259;22540;-56
2024/01/16 10:49:12;;;;;;;1.60;1.30;;;19.40;41.30;;;;;;222195;1263;24058;-59
2024/01/16 10:54:27;;;;;;;2.30;1.40;;;19.40;41.10;;;;;;222632;1266;25335;-58
2024/01/16 10:59:37;;;;;;;1.80;1.30;;;19.30;41.20;;;;;;222408;1262;25297;-57
2024/01/16 11:04:52;;;;;;;1.90;1.20;;;19.30;41.20;;;;;;222564;1265;25352;-57
2024/01/16 11:09:57;;;;;;;1.80;1.10;;;19.20;41.30;;;;;;223081;1262;23406;-56
2024/01/16 11:15:07;;;;;;;1.60;1.20;;;19.20;41.40;;;;;;222934;1266;22524;-57
2024/01/16 11:20:14;;;;;;;1.80;0.90;;;19.10;41.30;;;;;;222865;1265;24237;-54
2024/01/16 11:25:39;;;;;;;1.00;0.80;;;19.00;41.40;;;;;;222502;1264;23968;-57
2024/01/16 11:30:44;;;;;;;2.60;1.00;;;19.10;41.40;;;;;;222578;1266;22644;-56
2024/01/16 11:35:51;;;;;;;2.40;1.10;;;19.00;41.40;;;;;;222618;1265;24207;-57
2024/01/16 11:40:59;;;;;;;1.50;0.90;;;19.00;41.50;;;;;;222777;1266;23584;-57
2024/01/16 11:46:08;;;;;;;1.60;1.10;;;18.80;41.60;;;;;;222363;1266;26510;-56
2024/01/16 11:51:25;;;;;;;1.30;1.00;;;18.90;41.70;;;;;;222421;1265;24187;-56
2024/01/16 11:56:48;;;;;;;2.30;1.30;;;18.80;41.70;;;;;;222274;1267;22523;-53
2024/01/16 12:01:59;;;;;;;1.00;0.90;;;18.80;42.00;;;;;;222518;1262;22517;-56
2024/01/16 12:07:07;;;;;;;1.60;1.20;;;18.80;41.60;;;;;;223036;1246;22546;-56
2024/01/16 12:12:15;;;;;;;2.50;1.60;;;19.30;40.90;;;;;;222796;1264;22648;-54
2024/01/16 12:17:20;;;;;;;5.00;1.90;;;19.90;39.60;;;;;;223406;1266;22599;-57
2024/01/16 12:22:25;;;;;;;2.50;1.40;;;20.30;39.40;;;;;;223153;1265;22552;-57
2024/01/16 12:27:29;;;;;;;3.00;1.30;;;20.30;39.20;;;;;;222972;1263;22514;-55
2024/01/16 12:32:34;;;;;;;2.00;1.40;;;20.30;39.30;;;;;;222460;1265;24830;-55
2024/01/16 12:37:38;;;;;;;1.10;0.90;;;20.20;39.70;;;;;;222496;1266;22736;-58
2024/01/16 12:42:43;;;;;;;1.30;1.10;;;20.00;39.80;;;;;;222358;1265;22690;-57
2024/01/16 12:47:54;;;;;;;0.90;0.90;;;19.70;40.50;;;;;;222158;1263;25325;-56
2024/01/16 12:53:06;;;;;;;0.70;0.70;;;19.60;40.80;;;;;;222614;1268;24194;-58
2024/01/16 12:58:23;;;;;;;;;;;19.50;40.90;;;;;;222580;1260;24225;-57
2024/01/16 13:03:27;;;;;;;0.90;0.80;;;19.50;40.90;;;;;;222737;1267;22519;-57
2024/01/16 13:08:31;;;;;;;1.60;1.10;;;19.40;41.10;;;;;;222387;1265;22534;-56
2024/01/16 13:13:37;;;;;;;1.80;1.10;;;19.30;41.20;;;;;;222168;1268;22797;-58
2024/01/16 13:18:41;;;;;;;2.00;1.40;;;19.40;41.00;;;;;;222965;1262;22631;-55
2024/01/16 13:23:46;;;;;;;1.20;1.10;;;19.30;41.10;;;;;;222987;1260;25335;-55
2024/01/16 13:28:51;;;;;;;1.50;1.00;;;19.30;41.20;;;;;;223042;1266;22559;-56
2024/01/16 13:33:56;;;;;;;2.00;1.20;;;19.20;41.30;;;;;;222362;1260;26114;-54
2024/01/16 13:39:01;;;;;;;1.40;1.30;;;19.10;41.40;;;;;;222634;1262;22524;-55
2024/01/16 13:44:06;;;;;;;2.00;1.40;;;19.10;41.40;;;;;;222593;1265;25266;-54
2024/01/16 13:49:11;;;;;;;2.20;1.20;;;19.00;41.40;;;;;;222323;1265;25336;-57
2024/01/16 13:54:16;;;;;;;1.10;0.90;;;19.00;41.80;;;;;;222534;1265;22517;-57
2024/01/16 13:59:20;;;;;;;1.30;1.00;;;18.90;41.10;;;;;;222381;1251;25204;-53
2024/01/16 14:04:25;;;;;;;2.20;1.00;;;18.90;41.70;;;;;;222545;1247;22515;-57
2024/01/16 14:09:35;;;;;;;0.80;0.80;;;18.80;41.60;;;;;;222194;1260;22841;-53
2024/01/16 14:14:41;;;;;;;1.10;1.00;;;18.80;41.80;;;;;;222863;1265;25113;-56
2024/01/16 14:19:45;;;;;;;1.40;1.20;;;18.70;42.10;;;;;;223039;1267;22525;-57
2024/01/16 14:24:51;;;;;;;0.90;0.80;;;19.00;41.50;;;;;;222452;1265;22722;-56
2024/01/16 14:29:56;;;;;;;1.10;0.90;;;19.60;41.00;;;;;;222588;1266;24177;-54
2024/01/16 14:35:00;;;;;;;0.90;0.80;;;20.10;39.70;;;;;;222848;1266;24592;-54
2024/01/16 14:40:28;;;;;;;2.20;1.10;;;20.30;39.20;;;;;;222797;1266;24283;-56
2024/01/16 14:45:31;;;;;;;1.10;0.80;;;20.40;39.30;;;;;;222816;1264;23260;-55
2024/01/16 14:50:36;;;;;;;1.10;1.00;;;20.20;39.40;;;;;;222652;1266;22538;-56
2024/01/16 14:55:40;;;;;;;1.30;1.10;;;20.20;40.10;;;;;;222389;1266;22602;-56
2024/01/16 15:00:46;;;;;;;1.80;1.30;;;20.00;39.40;;;;;;222395;1267;22522;-57
2024/01/16 15:05:55;;;;;;;1.40;1.20;;;19.80;40.30;;;;;;222766;1262;22828;-57
2024/01/16 15:11:00;;;;;;;1.60;1.30;;;19.60;40.50;;;;;;222567;1266;24189;-58
2024/01/16 15:16:04;;;;;;;2.20;1.40;;;19.50;40.70;;;;;;221622;1255;25703;-56
2024/01/16 15:21:10;;;;;;;3.90;1.40;;;19.40;40.90;;;;;;221551;1270;25136;-57
2024/01/16 15:26:20;;;;;;;0.80;0.80;;;19.40;41.10;;;;;;221919;1266;24882;-57
2024/01/16 15:31:28;;;;;;;1.30;1.10;;;19.40;41.10;;;;;;221967;1265;24257;-57
2024/01/16 15:36:32;;;;;;;3.70;1.50;;;19.30;41.10;;;;;;222936;1262;25232;-56
2024/01/16 15:41:40;;;;;;;1.70;1.10;;;19.30;41.10;;;;;;223073;1268;26659;-57
2024/01/16 15:47:00;;;;;;;2.10;1.40;;;19.20;41.10;;;;;;222463;1267;26561;-56
2024/01/16 15:52:08;;;;;;;2.50;1.10;;;19.20;41.10;;;;;;222804;1267;22516;-56
2024/01/16 15:57:12;;;;;;;1.50;1.00;;;19.20;41.10;;;;;;222593;1265;22517;-57
2024/01/16 16:02:17;;;;;;;2.40;1.30;;;19.10;41.50;;;;;;222560;1268;23919;-56
2024/01/16 16:07:25;;;;;;;2.10;1.00;;;19.10;41.20;;;;;;222656;1266;24078;-53
2024/01/16 16:12:32;;;;;;;1.10;0.90;;;19.00;41.30;;;;;;222408;1265;24214;-54
2024/01/16 16:17:46;;;;;;;1.70;1.40;;;18.90;41.40;;;;;;222210;1266;23017;-56
2024/01/16 16:22:50;;;;;;;1.60;1.30;;;18.90;41.90;;;;;;222528;1266;22522;-56
2024/01/16 16:27:55;;;;;;;2.50;1.50;;;18.90;41.50;;;;;;222230;1267;22518;-57
2024/01/16 16:33:00;;;;;;;1.80;1.40;;;19.10;41.10;;;;;;222316;1268;22524;-57
2024/01/16 16:38:04;;;;;;;1.60;1.30;;;19.70;40.10;;;;;;223916;1264;22602;-55
2024/01/16 16:43:12;;;;;;;3.30;1.40;;;20.30;39.30;;;;;;222569;1266;24251;-57
2024/01/16 16:48:17;;;;;;;2.70;1.20;;;20.50;39.00;;;;;;222483;1267;25287;-57
2024/01/16 16:53:22;;;;;;;1.40;1.30;;;20.40;39.10;;;;;;222652;1263;23806;-58
2024/01/16 16:58:29;;;;;;;2.90;1.70;;;20.30;39.20;;;;;;222578;1266;25490;-56
2024/01/16 17:03:35;;;;;;;3.50;1.90;;;20.20;39.40;;;;;;222398;1268;24757;-56
2024/01/16 17:08:40;;;;;;;2.60;1.70;;;20.10;39.70;;;;;;222782;1267;22886;-56
2024/01/16 17:13:45;;;;;;;1.70;1.60;;;19.80;40.40;;;;;;222316;1268;24343;-56
2024/01/16 17:18:50;;;;;;;2.50;1.80;;;19.80;40.30;;;;;;222706;1267;22525;-56
2024/01/16 17:23:59;;;;;;;2.40;1.60;;;19.60;40.50;;;;;;222389;1268;22781;-51
2024/01/16 17:29:04;;;;;;;2.70;1.80;;;19.50;41.10;;;;;;222568;1260;24004;-56
2024/01/16 17:34:09;;;;;;;2.30;1.70;;;19.40;40.40;;;;;;222592;1268;25366;-56
2024/01/16 17:39:17;;;;;;;1.60;1.50;;;19.40;40.90;;;;;;222456;1265;22534;-57
2024/01/16 17:44:22;;;;;;;5.50;2.10;;;19.30;40.80;;;;;;222416;1267;343989;-57
2024/01/16 17:49:33;;;;;;;3.00;2.20;;;19.30;40.90;;;;;;222511;1268;22645;-59
2024/01/16 17:54:43;;;;;;;3.40;2.10;;;19.30;40.90;;;;;;222544;1265;22632;-56
2024/01/16 17:59:57;;;;;;;3.80;2.40;;;19.20;41.20;;;;;;222395;1254;22527;-56
2024/01/16 18:05:09;;;;;;;5.20;2.80;;;19.20;41.20;;;;;;222580;1262;24186;-58
2024/01/16 18:10:14;;;;;;;;;;;19.10;40.90;;;;;;222681;1263;24276;-54
2024/01/16 18:15:21;;;;;;;4.40;2.10;;;19.10;40.90;;;;;;222787;1264;22524;-57
2024/01/16 18:20:37;;;;;;;5.80;2.30;;;19.00;41.30;;;;;;222867;1257;25232;-56
2024/01/16 18:25:46;;;;;;;3.50;2.30;;;19.00;41.00;;;;;;222649;1267;22774;-52
2024/01/16 18:30:53;;;;;;;5.20;3.20;;;18.90;41.00;;;;;;222806;1260;22541;-57
2024/01/16 18:42:59;;;;;;;11.60;4.40;;;19.20;40.90;;;;;;222396;1267;22568;-58
2024/01/16 18:48:07;;;;;;;10.20;3.90;;;20.10;39.70;;;;;;222914;1264;22535;-57
2024/01/16 18:53:13;;;;;;;8.80;3.90;;;20.40;38.40;;;;;;222384;1268;23147;-56
2024/01/16 18:58:20;;;;;;;6.40;3.20;;;20.50;38.70;;;;;;222528;1268;25268;-58
2024/01/16 19:03:26;;;;;;;8.70;4.20;;;20.40;38.90;;;;;;222420;1266;25298;-57
2024/01/16 19:08:33;;;;;;;5.40;3.70;;;20.30;39.00;;;;;;222908;1267;25396;-58
2024/01/16 19:13:39;;;;;;;4.50;3.40;;;20.20;39.10;;;;;;222820;1264;24303;-58
2024/01/16 19:18:45;;;;;;;6.40;4.00;;;19.90;39.50;;;;;;222670;1260;24195;-57
2024/01/16 19:23:51;;;;;;;4.30;3.60;;;19.80;40.00;;;;;;222547;1261;25256;-55
2024/01/16 19:28:56;;;;;;;8.20;4.20;;;19.70;40.30;;;;;;222575;1264;25287;-57
2024/01/16 19:34:04;;;;;;;6.50;4.30;;;19.50;40.40;;;;;;222422;1252;25328;-57
2024/01/16 19:39:14;;;;;;;4.80;3.90;;;19.50;40.50;;;;;;222572;1262;24203;-58
2024/01/16 19:44:19;;;;;;;4.40;3.90;;;19.50;40.50;;;;;;222767;1260;26533;-57
2024/01/16 19:49:25;;;;;;;5.70;4.50;;;19.30;40.50;;;;;;222683;1266;24194;-57
2024/01/16 19:54:33;;;;;;;4.70;4.00;;;19.30;40.50;;;;;;222164;1268;22579;-54
2024/01/16 19:59:46;;;;;;;4.50;3.90;;;19.30;40.50;;;;;;222349;1264;22753;-51
2024/01/16 20:04:52;;;;;;;8.50;4.70;;;19.30;40.60;;;;;;222929;1258;22520;-57
2024/01/16 20:10:01;;;;;;;4.90;4.20;;;19.30;40.90;;;;;;222399;1264;22593;-57
2024/01/16 20:15:19;;;;;;;5.40;4.70;;;19.20;40.50;;;;;;222551;1264;22541;-54
2024/01/16 20:20:27;;;;;;;7.60;5.10;;;19.20;40.90;;;;;;222658;1260;22724;-54
2024/01/16 20:25:32;;;;;;;8.40;4.90;;;19.10;41.10;;;;;;222959;1244;25363;-55
2024/01/16 20:30:39;;;;;;;6.60;4.40;;;19.10;40.60;;;;;;222618;1260;22544;-55
2024/01/16 20:35:47;;;;;;;6.00;4.40;;;19.00;41.00;;;;;;222303;1248;25295;-54
2024/01/16 20:40:51;;;;;;;5.60;4.30;;;18.90;40.80;;;;;;222653;1267;22523;-55
2024/01/16 20:46:00;;;;;;;5.40;4.40;;;18.80;41.40;;;;;;222506;1264;25433;-53
2024/01/16 20:51:05;;;;;;;4.40;4.00;;;18.80;41.10;;;;;;222533;1264;22637;-54
2024/01/16 20:56:10;;;;;;;5.00;4.20;;;19.40;40.60;;;;;;222206;1267;27507;-57
2024/01/16 21:01:15;;;;;;;6.70;4.80;;;20.00;39.30;;;;;;222461;1263;22628;-58
2024/01/16 21:06:22;;;;;;;5.30;4.70;;;20.40;39.00;;;;;;222742;1262;22528;-57
2024/01/16 21:11:27;;;;;;;6.20;5.10;;;20.40;38.70;;;;;;222419;1264;22659;-56
2024/01/16 21:16:31;;;;;;;5.40;4.30;;;20.40;38.70;;;;;;222382;1254;25516;-56
2024/01/16 21:21:36;;;;;;;6.20;4.70;;;20.20;38.90;;;;;;222645;1264;22527;-55
2024/01/16 21:26:47;;;;;;;5.60;4.00;;;20.10;39.40;;;;;;222525;1263;22524;-57
2024/01/16 21:31:53;;;;;;;5.70;4.90;;;19.90;39.80;;;;;;222483;1265;22538;-53
2024/01/16 21:36:57;;;;;;;8.50;5.10;;;19.70;39.90;;;;;;222510;1261;22648;-57
2024/01/16 21:42:05;;;;;;;5.80;4.70;;;19.60;40.10;;;;;;222667;1267;24352;-58
2024/01/16 21:47:13;;;;;;;5.20;4.50;;;19.50;40.10;;;;;;222833;1263;24252;-55
2024/01/16 21:52:20;;;;;;;6.70;5.10;;;19.40;40.30;;;;;;222356;1257;24347;-58
2024/01/16 21:57:28;;;;;;;6.30;4.60;;;19.40;40.40;;;;;;222731;1267;22521;-55
2024/01/16 22:02:33;;;;;;;5.80;4.80;;;19.40;40.50;;;;;;223325;1267;25383;-57
2024/01/16 22:07:43;;;;;;;6.30;4.90;;;19.30;40.60;;;;;;222945;1267;22539;-52
2024/01/16 22:12:47;;;;;;;6.50;5.30;;;19.20;40.40;;;;;;222533;1267;24203;-56
2024/01/16 22:17:54;;;;;;;6.00;4.70;;;19.40;40.20;;;;;;222402;1267;25298;-56
2024/01/16 22:23:13;;;;;;;8.70;5.20;;;20.00;39.40;;;;;;222788;1267;24642;-57
2024/01/16 22:28:18;;;;;;;6.00;4.60;;;20.50;38.60;;;;;;222710;1266;25330;-55
2024/01/16 22:33:23;;;;;;;5.90;4.60;;;20.70;38.30;;;;;;222684;1264;26188;-57
2024/01/16 22:38:28;;;;;;;9.40;5.60;;;20.80;38.20;;;;;;222669;1261;24228;-55
2024/01/16 22:43:34;;;;;;;5.40;4.40;;;20.70;38.40;;;;;;222173;1260;26705;-57
2024/01/16 22:48:38;;;;;;;6.20;4.50;;;20.60;38.50;;;;;;222477;1266;25485;-57
2024/01/16 22:53:46;;;;;;;6.10;5.40;;;20.40;38.80;;;;;;223126;1267;22522;-57
2024/01/16 22:58:50;;;;;;;6.80;5.00;;;20.10;39.40;;;;;;222465;1258;22531;-56
2024/01/16 23:03:57;;;;;;;5.60;4.90;;;19.90;39.70;;;;;;222664;1267;23928;-57
2024/01/16 23:09:05;;;;;;;7.10;5.60;;;19.90;39.80;;;;;;222339;1252;25353;-54
2024/01/16 23:14:11;;;;;;;7.20;5.60;;;19.80;40.00;;;;;;222671;1254;23329;-56
2024/01/16 23:19:15;;;;;;;6.00;4.80;;;19.70;40.10;;;;;;222513;1260;22521;-57
2024/01/16 23:24:19;;;;;;;10.00;5.80;;;19.70;40.50;;;;;;222558;1253;25287;-57
2024/01/16 23:29:24;;;;;;;10.30;5.40;;;19.50;40.30;;;;;;222403;1267;22530;-56
2024/01/16 23:34:41;;;;;;;7.40;5.80;;;19.50;40.60;;;;;;222504;1265;22535;-57
2024/01/16 23:39:47;;;;;;;8.10;5.50;;;19.50;40.30;;;;;;222607;1260;22531;-58
2024/01/16 23:44:57;;;;;;;8.80;5.60;;;19.50;40.20;;;;;;222359;1267;24323;-58
2024/01/16 23:50:02;;;;;;;10.40;6.40;;;19.40;40.20;;;;;;222658;1267;25536;-54
2024/01/16 23:55:11;;;;;;;6.90;5.10;;;19.40;40.10;;;;;;222838;1261;22535;-57
